createdAt,value
2022-11-28T00:00:05.717Z,5.63
2022-11-28T00:02:32.455Z,5.59
2022-11-28T00:04:59.160Z,5.40
2022-11-28T00:07:25.899Z,5.03
2022-11-28T00:09:52.521Z,5.01
2022-11-28T00:12:19.165Z,5.10
2022-11-28T00:14:45.780Z,5.05
2022-11-28T00:17:12.417Z,4.90
2022-11-28T00:19:39.066Z,4.66
2022-11-28T00:22:05.703Z,4.76
2022-11-28T00:24:32.367Z,5.02
2022-11-28T00:26:59.000Z,5.10
2022-11-28T00:29:25.614Z,5.19
2022-11-28T00:31:52.262Z,5.58
2022-11-28T00:34:18.942Z,4.92
2022-11-28T00:36:46.308Z,4.68
2022-11-28T00:39:13.042Z,4.53
2022-11-28T00:41:39.660Z,4.63
2022-11-28T00:44:06.329Z,4.20
2022-11-28T00:46:32.961Z,4.54
2022-11-28T00:48:59.612Z,4.52
2022-11-28T00:51:30.924Z,4.65
2022-11-28T00:53:58.470Z,4.67
2022-11-28T00:56:33.143Z,4.79
2022-11-28T00:58:59.773Z,4.60
2022-11-28T01:01:28.364Z,4.03
2022-11-28T01:03:56.362Z,4.11
2022-11-28T01:06:31.222Z,4.06
2022-11-28T01:09:01.972Z,4.02
2022-11-28T01:11:28.888Z,3.75
2022-11-28T01:13:56.818Z,3.72
2022-11-28T01:16:23.549Z,3.46
2022-11-28T01:18:50.302Z,3.03
2022-11-28T01:21:16.932Z,3.15
2022-11-28T01:23:43.539Z,3.58
2022-11-28T01:26:11.716Z,3.53
2022-11-28T01:28:38.336Z,3.08
2022-11-28T01:31:09.000Z,3.33
2022-11-28T01:33:35.694Z,3.27
2022-11-28T01:36:02.414Z,3.32
2022-11-28T01:38:29.029Z,4.39
2022-11-28T01:40:55.996Z,4.06
2022-11-28T01:43:22.904Z,3.85
2022-11-28T01:45:49.549Z,4.45
2022-11-28T01:48:27.464Z,4.96
2022-11-28T01:50:57.120Z,4.68
2022-11-28T01:53:23.769Z,5.00
2022-11-28T01:55:54.494Z,5.44
2022-11-28T01:58:21.103Z,5.56
2022-11-28T02:00:47.783Z,6.16
2022-11-28T02:03:20.076Z,6.17
2022-11-28T02:05:47.521Z,6.15
2022-11-28T02:08:14.144Z,6.42
2022-11-28T02:11:02.961Z,6.21
2022-11-28T02:13:59.214Z,6.26
2022-11-28T02:16:33.272Z,6.28
2022-11-28T02:19:25.152Z,6.18
2022-11-28T02:21:56.567Z,6.49
2022-11-28T02:24:35.146Z,6.16
2022-11-28T02:27:09.172Z,6.37
2022-11-28T02:29:38.719Z,6.54
2022-11-28T02:32:27.182Z,6.26
2022-11-28T02:35:16.747Z,6.11
2022-11-28T02:38:11.225Z,6.04
2022-11-28T02:40:50.036Z,6.12
2022-11-28T02:43:19.448Z,5.12
2022-11-28T02:45:58.186Z,5.24
2022-11-28T02:48:31.998Z,5.39
2022-11-28T02:51:09.295Z,5.50
2022-11-28T02:53:36.014Z,5.19
2022-11-28T02:56:02.660Z,5.10
2022-11-28T02:58:29.270Z,5.48
2022-11-28T03:00:55.935Z,4.96
2022-11-28T03:03:47.870Z,4.88
2022-11-28T03:06:32.635Z,4.79
2022-11-28T03:09:08.997Z,4.72
2022-11-28T03:11:46.293Z,4.62
2022-11-28T03:14:15.745Z,4.97
2022-11-28T03:17:04.077Z,5.10
2022-11-28T03:19:37.076Z,4.85
2022-11-28T03:22:26.814Z,4.79
2022-11-28T03:24:57.449Z,5.20
2022-11-28T03:27:32.591Z,5.37
2022-11-28T03:30:24.323Z,4.85
2022-11-28T03:32:51.683Z,4.94
2022-11-28T03:35:20.377Z,5.33
2022-11-28T03:38:03.370Z,5.30
2022-11-28T03:40:33.278Z,5.15
2022-11-28T03:43:09.362Z,5.52
2022-11-28T03:45:47.079Z,5.66
2022-11-28T03:48:23.150Z,5.62
2022-11-28T03:50:59.112Z,5.56
2022-11-28T03:53:32.429Z,5.49
2022-11-28T03:56:09.188Z,5.08
2022-11-28T03:58:38.160Z,5.00
2022-11-28T04:01:44.217Z,4.94
2022-11-28T04:04:26.010Z,5.05
2022-11-28T04:07:03.603Z,4.03
2022-11-28T04:09:38.173Z,4.36
2022-11-28T04:12:10.700Z,4.12
2022-11-28T04:14:44.007Z,3.73
2022-11-28T04:17:26.747Z,3.83
2022-11-28T04:20:01.294Z,3.95
2022-11-28T04:22:29.833Z,3.40
2022-11-28T04:24:58.941Z,3.43
2022-11-28T04:27:33.281Z,3.48
2022-11-28T04:30:00.234Z,3.61
2022-11-28T04:32:26.877Z,3.31
2022-11-28T04:34:56.420Z,3.34
2022-11-28T04:37:23.343Z,3.37
2022-11-28T04:39:49.966Z,3.40
2022-11-28T04:42:43.341Z,3.31
2022-11-28T04:45:13.548Z,3.43
2022-11-28T04:47:40.188Z,3.44
2022-11-28T04:50:07.273Z,3.33
2022-11-28T04:52:56.187Z,3.18
2022-11-28T04:55:43.796Z,3.33
2022-11-28T04:58:22.433Z,3.41
2022-11-28T05:00:49.897Z,3.07
2022-11-28T05:03:16.579Z,3.63
2022-11-28T05:05:45.082Z,3.70
2022-11-28T05:08:11.695Z,3.56
2022-11-28T05:10:38.294Z,3.93
2022-11-28T05:13:04.930Z,4.46
2022-11-28T05:15:31.573Z,4.98
2022-11-28T05:17:58.199Z,4.69
2022-11-28T05:20:24.859Z,4.51
2022-11-28T05:22:51.488Z,4.98
2022-11-28T05:25:18.123Z,4.59
2022-11-28T05:27:44.753Z,4.74
2022-11-28T05:30:11.919Z,5.06
2022-11-28T05:32:38.551Z,4.88
2022-11-28T05:35:05.429Z,4.85
2022-11-28T05:37:32.057Z,4.72
2022-11-28T05:39:58.723Z,4.92
2022-11-28T05:42:25.342Z,4.97
2022-11-28T05:44:51.984Z,4.87
2022-11-28T05:47:18.627Z,4.82
2022-11-28T05:49:46.336Z,5.10
2022-11-28T05:52:12.993Z,5.01
2022-11-28T05:54:39.656Z,4.93
2022-11-28T05:57:06.349Z,4.98
2022-11-28T05:59:33.386Z,4.97
2022-11-28T06:02:00.169Z,4.98
2022-11-28T06:04:26.885Z,4.81
2022-11-28T06:06:53.566Z,5.04
2022-11-28T06:09:25.534Z,4.90
2022-11-28T06:11:52.578Z,5.02
2022-11-28T06:14:19.209Z,5.66
2022-11-28T06:16:45.872Z,5.02
2022-11-28T06:19:12.581Z,5.07
2022-11-28T06:21:39.471Z,4.77
2022-11-28T06:24:06.472Z,4.84
2022-11-28T06:26:33.192Z,4.58
2022-11-28T06:28:59.830Z,4.95
2022-11-28T06:31:28.485Z,4.30
2022-11-28T06:33:55.401Z,4.64
2022-11-28T06:36:22.018Z,4.68
2022-11-28T06:38:48.659Z,4.26
2022-11-28T06:41:16.694Z,4.16
2022-11-28T06:43:43.923Z,3.90
2022-11-28T06:46:16.166Z,3.88
2022-11-28T06:48:43.626Z,3.73
2022-11-28T06:51:10.890Z,3.92
2022-11-28T06:53:37.986Z,4.19
2022-11-28T06:56:09.357Z,3.73
2022-11-28T06:58:36.022Z,3.59
2022-11-28T07:01:19.296Z,3.80
2022-11-28T07:03:46.055Z,3.54
2022-11-28T07:06:13.157Z,4.24
2022-11-28T07:08:39.859Z,3.95
2022-11-28T07:11:14.549Z,4.10
2022-11-28T07:13:41.278Z,3.92
2022-11-28T07:16:08.257Z,3.95
2022-11-28T07:18:34.989Z,3.53
2022-11-28T07:21:01.602Z,3.42
2022-11-28T07:23:28.217Z,3.66
2022-11-28T07:26:00.492Z,3.61
2022-11-28T07:28:28.073Z,3.77
2022-11-28T07:31:04.735Z,3.76
2022-11-28T07:33:31.376Z,3.87
2022-11-28T07:36:02.068Z,3.92
2022-11-28T07:38:28.704Z,4.90
2022-11-28T07:40:55.319Z,5.37
2022-11-28T07:43:21.934Z,5.04
2022-11-28T07:46:00.491Z,5.09
2022-11-28T07:48:28.108Z,4.45
2022-11-28T07:50:54.748Z,4.16
2022-11-28T07:53:21.406Z,4.34
2022-11-28T07:55:48.011Z,4.44
2022-11-28T07:58:14.653Z,4.47
2022-11-28T08:00:41.342Z,3.96
2022-11-28T08:03:07.986Z,4.50
2022-11-28T08:05:34.622Z,4.44
2022-11-28T08:08:01.286Z,4.59
2022-11-28T08:10:27.936Z,4.14
2022-11-28T08:12:54.578Z,4.27
2022-11-28T08:15:21.198Z,4.03
2022-11-28T08:17:47.824Z,4.89
2022-11-28T08:20:14.430Z,4.85
2022-11-28T08:22:41.062Z,4.95
2022-11-28T08:25:07.913Z,5.42
2022-11-28T08:27:34.571Z,6.10
2022-11-28T08:30:01.189Z,5.43
2022-11-28T08:32:29.320Z,4.58
2022-11-28T08:34:55.934Z,5.31
2022-11-28T08:37:22.564Z,4.88
2022-11-28T08:39:49.196Z,4.99
2022-11-28T08:42:15.799Z,4.97
2022-11-28T08:44:42.439Z,4.71
2022-11-28T08:47:09.089Z,4.76
2022-11-28T08:49:36.979Z,4.65
2022-11-28T08:52:04.390Z,4.56
2022-11-28T08:54:31.124Z,4.75
2022-11-28T08:56:57.774Z,4.49
2022-11-28T08:59:24.649Z,4.73
2022-11-28T09:01:54.363Z,4.72
2022-11-28T09:04:21.664Z,4.57
2022-11-28T09:06:48.318Z,4.65
2022-11-28T09:09:14.998Z,4.67
2022-11-28T09:11:41.709Z,4.36
2022-11-28T09:14:08.333Z,4.40
2022-11-28T09:16:35.031Z,4.26
2022-11-28T09:19:01.694Z,4.43
2022-11-28T09:21:28.344Z,4.51
2022-11-28T09:23:55.333Z,4.69
2022-11-28T09:26:23.061Z,4.47
2022-11-28T09:28:49.698Z,5.66
2022-11-28T09:31:16.867Z,6.27
2022-11-28T09:33:43.833Z,5.75
2022-11-28T09:36:12.066Z,5.65
2022-11-28T09:38:38.797Z,5.55
2022-11-28T09:41:24.621Z,5.33
2022-11-28T09:43:54.868Z,5.10
2022-11-28T09:46:26.164Z,5.55
2022-11-28T09:48:54.448Z,5.22
2022-11-28T09:51:45.313Z,5.37
2022-11-28T09:54:21.325Z,5.51
2022-11-28T09:56:48.858Z,5.18
2022-11-28T09:59:25.378Z,5.34
2022-11-28T10:02:04.797Z,5.20
2022-11-28T10:04:46.748Z,5.38
2022-11-28T10:07:23.329Z,5.00
2022-11-28T10:10:03.317Z,4.98
2022-11-28T10:13:17.858Z,5.22
2022-11-28T10:16:02.327Z,5.04
2022-11-28T10:18:49.150Z,4.94
2022-11-28T10:21:37.693Z,4.89
2022-11-28T10:24:07.320Z,5.58
2022-11-28T10:26:38.057Z,5.25
2022-11-28T10:29:17.973Z,5.13
2022-11-28T10:31:44.843Z,4.95
2022-11-28T10:34:30.875Z,4.95
2022-11-28T10:37:16.162Z,4.98
2022-11-28T10:39:43.980Z,5.08
2022-11-28T10:42:47.721Z,4.81
2022-11-28T10:46:02.941Z,4.90
2022-11-28T10:48:41.819Z,4.82
2022-11-28T10:51:23.783Z,4.54
2022-11-28T10:53:59.203Z,4.60
2022-11-28T10:56:47.457Z,4.47
2022-11-28T10:59:13.962Z,4.14
2022-11-28T11:01:42.058Z,4.47
2022-11-28T11:04:17.391Z,4.54
2022-11-28T11:07:06.819Z,4.71
2022-11-28T11:09:32.559Z,5.23
2022-11-28T11:11:59.195Z,5.49
2022-11-28T11:14:36.290Z,5.38
2022-11-28T11:17:03.070Z,5.44
2022-11-28T11:19:34.154Z,5.10
2022-11-28T11:22:21.905Z,5.37
2022-11-28T11:25:13.722Z,5.32
2022-11-28T11:27:54.691Z,5.67
2022-11-28T11:30:34.073Z,5.78
2022-11-28T11:33:01.788Z,6.11
2022-11-28T11:35:30.179Z,6.22
2022-11-28T11:38:20.217Z,6.01
2022-11-28T11:40:47.573Z,5.64
2022-11-28T11:43:23.269Z,5.70
2022-11-28T11:46:06.302Z,5.51
2022-11-28T11:48:50.863Z,5.46
2022-11-28T11:51:28.121Z,5.82
2022-11-28T11:54:01.972Z,5.70
2022-11-28T11:56:35.459Z,5.78
2022-11-28T11:59:02.494Z,5.73
2022-11-28T12:01:30.293Z,5.78
2022-11-28T12:03:58.381Z,5.57
2022-11-28T12:06:29.460Z,5.73
2022-11-28T12:09:27.327Z,5.44
2022-11-28T12:12:01.126Z,5.40
2022-11-28T12:14:36.800Z,5.09
2022-11-28T12:20:50.053Z,5.62
2022-11-28T12:23:35.277Z,5.36
2022-11-28T12:26:21.085Z,7.53
2022-11-28T12:29:00.746Z,9.20
2022-11-28T12:31:51.847Z,8.95
2022-11-28T12:34:31.219Z,6.51
2022-11-28T12:37:48.351Z,6.21
2022-11-28T12:40:59.835Z,6.23
2022-11-28T12:43:41.866Z,6.62
2022-11-28T12:46:41.435Z,6.46
2022-11-28T12:49:27.115Z,6.12
2022-11-28T12:52:20.517Z,5.85
2022-11-28T12:55:00.388Z,5.16
2022-11-28T12:57:34.820Z,5.09
2022-11-28T13:00:14.090Z,5.38
2022-11-28T13:03:04.228Z,5.04
2022-11-28T13:05:53.638Z,4.94
2022-11-28T13:08:20.201Z,4.98
2022-11-28T13:11:10.943Z,4.69
2022-11-28T13:14:02.054Z,4.66
2022-11-28T13:16:42.913Z,4.41
2022-11-28T13:19:21.622Z,4.78
2022-11-28T13:21:53.090Z,4.83
2022-11-28T13:24:40.901Z,4.59
2022-11-28T13:27:25.649Z,5.15
2022-11-28T13:30:14.638Z,5.47
2022-11-28T13:33:05.528Z,5.29
2022-11-28T13:35:32.190Z,6.33
2022-11-28T13:38:48.303Z,6.47
2022-11-28T13:41:43.272Z,6.20
2022-11-28T13:44:03.694Z,5.00
2022-11-28T13:46:30.424Z,5.82
2022-11-28T13:49:20.252Z,5.65
2022-11-28T13:51:47.549Z,5.50
2022-11-28T13:54:19.798Z,5.84
2022-11-28T13:57:14.736Z,5.43
2022-11-28T13:59:41.432Z,5.10
2022-11-28T14:02:42.167Z,5.57
2022-11-28T14:05:27.200Z,5.30
2022-11-28T14:07:55.884Z,4.90
2022-11-28T14:10:29.472Z,4.40
2022-11-28T14:13:22.175Z,3.84
2022-11-28T14:15:57.897Z,3.74
2022-11-28T14:18:56.929Z,4.15
2022-11-28T14:21:31.957Z,3.72
2022-11-28T14:24:00.529Z,4.53
2022-11-28T14:26:29.884Z,4.63
2022-11-28T14:28:56.575Z,4.79
2022-11-28T14:31:31.687Z,4.97
2022-11-28T14:34:01.906Z,5.13
2022-11-28T14:36:35.912Z,4.71
2022-11-28T14:39:14.372Z,6.86
2022-11-28T14:42:04.085Z,7.74
2022-11-28T14:44:46.004Z,8.14
2022-11-28T14:47:31.839Z,6.63
2022-11-28T14:50:04.290Z,6.75
2022-11-28T14:52:40.693Z,6.06
2022-11-28T14:55:10.582Z,5.99
2022-11-28T14:57:39.946Z,5.88
2022-11-28T15:00:13.375Z,6.42
2022-11-28T15:03:07.953Z,6.48
2022-11-28T15:05:44.824Z,6.71
2022-11-28T15:08:20.259Z,7.73
2022-11-28T15:11:09.522Z,8.51
2022-11-28T15:14:13.503Z,9.47
2022-11-28T15:16:46.769Z,8.96
2022-11-28T15:19:23.057Z,8.43
2022-11-28T15:21:50.736Z,8.58
2022-11-28T15:24:22.790Z,8.38
2022-11-28T15:26:54.304Z,8.41
2022-11-28T15:29:25.959Z,8.22
2022-11-28T15:31:53.405Z,8.14
2022-11-28T15:34:26.675Z,7.33
2022-11-28T15:36:54.245Z,6.97
2022-11-28T15:39:34.400Z,7.28
2022-11-28T15:42:01.141Z,7.74
2022-11-28T15:44:27.807Z,8.12
2022-11-28T15:46:55.248Z,7.74
2022-11-28T15:49:30.944Z,7.88
2022-11-28T15:52:00.390Z,7.82
2022-11-28T15:54:29.525Z,8.01
2022-11-28T15:56:57.136Z,6.28
2022-11-28T15:59:23.880Z,5.96
2022-11-28T16:01:53.554Z,5.78
2022-11-28T16:04:24.429Z,5.13
2022-11-28T16:06:52.152Z,5.12
2022-11-28T16:09:18.645Z,6.70
2022-11-28T16:11:49.357Z,7.98
2022-11-28T16:14:32.838Z,7.69
2022-11-28T16:17:00.389Z,6.67
2022-11-28T16:19:34.009Z,4.86
2022-11-28T16:22:04.603Z,4.13
2022-11-28T16:24:44.513Z,3.99
2022-11-28T16:27:34.062Z,4.32
2022-11-28T16:30:01.324Z,4.00
2022-11-28T16:32:38.180Z,3.40
2022-11-28T16:35:05.565Z,3.05
2022-11-28T16:37:32.219Z,2.68
2022-11-28T16:40:19.728Z,2.30
2022-11-28T16:42:55.898Z,2.36
2022-11-28T16:45:26.116Z,2.30
2022-11-28T16:48:06.833Z,2.10
2022-11-28T16:50:33.676Z,1.87
2022-11-28T16:53:00.322Z,1.60
2022-11-28T16:55:32.498Z,1.70
2022-11-28T16:58:03.072Z,1.76
2022-11-28T17:00:29.788Z,2.26
2022-11-28T17:02:56.425Z,2.40
2022-11-28T17:05:23.149Z,2.35
2022-11-28T17:07:49.844Z,2.46
2022-11-28T17:10:16.504Z,2.62
2022-11-28T17:12:43.158Z,2.63
2022-11-28T17:15:18.049Z,2.36
2022-11-28T17:17:44.749Z,1.81
2022-11-28T17:20:14.895Z,1.95
2022-11-28T17:22:45.918Z,1.49
2022-11-28T17:25:19.816Z,1.28
2022-11-28T17:27:46.715Z,1.31
2022-11-28T17:30:14.421Z,1.32
2022-11-28T17:32:41.025Z,1.40
2022-11-28T17:35:19.933Z,2.07
2022-11-28T17:37:46.577Z,2.54
2022-11-28T17:40:13.265Z,1.67
2022-11-28T17:42:39.881Z,1.42
2022-11-28T17:45:13.003Z,1.23
2022-11-28T17:47:39.665Z,1.37
2022-11-28T17:50:06.910Z,1.47
2022-11-28T17:52:33.529Z,1.41
2022-11-28T17:55:05.035Z,1.86
2022-11-28T17:57:33.494Z,1.42
2022-11-28T18:00:00.121Z,1.67
2022-11-28T18:02:27.021Z,1.78
2022-11-28T18:04:53.662Z,1.77
2022-11-28T18:07:20.372Z,2.27
2022-11-28T18:09:47.063Z,1.84
2022-11-28T18:12:13.763Z,1.75
2022-11-28T18:14:40.512Z,1.51
2022-11-28T18:17:07.312Z,1.61
2022-11-28T18:19:34.064Z,1.86
2022-11-28T18:22:00.720Z,1.76
2022-11-28T18:24:27.334Z,1.88
2022-11-28T18:26:53.970Z,2.02
2022-11-28T18:29:20.607Z,1.97
2022-11-28T18:31:47.260Z,2.07
2022-11-28T18:34:13.942Z,2.42
2022-11-28T18:36:40.612Z,2.80
2022-11-28T18:39:08.564Z,2.35
2022-11-28T18:41:35.306Z,2.60
2022-11-28T18:44:03.509Z,3.08
2022-11-28T18:46:30.422Z,3.81
2022-11-28T18:48:57.089Z,3.25
2022-11-28T18:51:25.234Z,4.38
2022-11-28T18:53:53.103Z,3.18
2022-11-28T18:56:19.936Z,3.02
2022-11-28T18:58:47.636Z,3.22
2022-11-28T19:01:24.142Z,3.20
2022-11-28T19:03:51.976Z,3.71
2022-11-28T19:06:19.325Z,3.96
2022-11-28T19:08:45.971Z,5.13
2022-11-28T19:11:13.986Z,5.11
2022-11-28T19:13:41.418Z,5.00
2022-11-28T19:16:09.145Z,4.83
2022-11-28T19:18:35.905Z,4.38
2022-11-28T19:21:09.794Z,3.44
2022-11-28T19:23:36.431Z,3.36
2022-11-28T19:26:07.042Z,3.19
2022-11-28T19:28:36.662Z,2.86
2022-11-28T19:31:06.866Z,2.84
2022-11-28T19:33:33.487Z,3.19
2022-11-28T19:36:07.299Z,3.19
2022-11-28T19:38:34.539Z,3.51
2022-11-28T19:41:11.934Z,3.76
2022-11-28T19:43:38.833Z,3.25
2022-11-28T19:46:06.531Z,2.82
2022-11-28T19:48:33.859Z,2.92
2022-11-28T19:51:00.764Z,3.07
2022-11-28T19:53:28.533Z,2.78
2022-11-28T19:55:55.239Z,3.18
2022-11-28T19:58:21.994Z,3.06
2022-11-28T20:00:48.628Z,3.85
2022-11-28T20:03:16.636Z,4.16
2022-11-28T20:05:43.370Z,3.37
2022-11-28T20:08:10.249Z,2.78
2022-11-28T20:10:39.991Z,2.89
2022-11-28T20:13:06.617Z,4.05
2022-11-28T20:15:36.692Z,3.53
2022-11-28T20:18:03.339Z,3.00
2022-11-28T20:20:30.177Z,2.85
2022-11-28T20:22:56.814Z,2.52
2022-11-28T20:25:23.866Z,2.95
2022-11-28T20:27:50.507Z,2.99
2022-11-28T20:30:17.167Z,3.31
2022-11-28T20:32:43.840Z,3.84
2022-11-28T20:35:10.462Z,3.98
2022-11-28T20:37:37.352Z,3.51
2022-11-28T20:40:04.276Z,3.56
2022-11-28T20:42:34.297Z,3.06
2022-11-28T20:45:03.658Z,2.31
2022-11-28T20:47:30.311Z,1.90
2022-11-28T20:49:56.954Z,2.85
2022-11-28T20:52:23.592Z,3.28
2022-11-28T20:54:50.227Z,4.11
2022-11-28T20:57:21.673Z,4.30
2022-11-28T20:59:48.778Z,2.53
2022-11-28T21:02:16.710Z,2.33
2022-11-28T21:04:43.411Z,2.44
2022-11-28T21:07:10.122Z,2.31
2022-11-28T21:09:36.777Z,2.13
2022-11-28T21:12:03.668Z,2.44
2022-11-28T21:14:30.326Z,2.46
2022-11-28T21:16:57.315Z,2.50
2022-11-28T21:19:24.132Z,2.78
2022-11-28T21:21:50.852Z,2.74
2022-11-28T21:24:17.513Z,2.78
2022-11-28T21:26:48.169Z,3.00
2022-11-28T21:29:17.923Z,2.97
2022-11-28T21:31:44.683Z,3.02
2022-11-28T21:34:12.455Z,2.87
2022-11-28T21:36:39.147Z,2.83
2022-11-28T21:39:05.769Z,2.71
2022-11-28T21:41:32.431Z,2.91
2022-11-28T21:43:59.482Z,2.98
2022-11-28T21:46:26.324Z,3.04
2022-11-28T21:48:52.967Z,3.01
2022-11-28T21:51:21.592Z,3.08
2022-11-28T21:53:48.446Z,3.27
2022-11-28T21:56:15.087Z,2.75
2022-11-28T21:58:41.730Z,2.47
2022-11-28T22:01:09.874Z,2.59
2022-11-28T22:03:36.767Z,2.81
2022-11-28T22:06:08.813Z,2.88
2022-11-28T22:08:35.478Z,2.62
2022-11-28T22:11:07.997Z,2.70
2022-11-28T22:13:34.889Z,2.83
2022-11-28T22:16:01.597Z,2.94
2022-11-28T22:18:31.285Z,2.63
2022-11-28T22:21:12.910Z,2.87
2022-11-28T22:23:51.150Z,2.78
2022-11-28T22:26:17.845Z,2.59
2022-11-28T22:28:47.860Z,2.74
2022-11-28T22:31:19.891Z,2.45
2022-11-28T22:33:46.567Z,2.57
2022-11-28T22:36:14.775Z,2.47
2022-11-28T22:38:41.907Z,2.82
2022-11-28T22:41:09.110Z,2.45
2022-11-28T22:43:36.067Z,2.90
2022-11-28T22:46:02.764Z,2.79
2022-11-28T22:48:30.050Z,2.80
2022-11-28T22:50:56.733Z,2.78
2022-11-28T22:53:23.380Z,2.93
2022-11-28T22:55:50.031Z,2.89
2022-11-28T22:58:16.710Z,3.06
2022-11-28T23:00:43.381Z,2.72
2022-11-28T23:03:10.153Z,2.94
2022-11-28T23:05:39.963Z,2.87
2022-11-28T23:08:06.627Z,3.06
2022-11-28T23:10:36.120Z,3.18
2022-11-28T23:13:02.760Z,2.74
2022-11-28T23:15:29.451Z,2.54
2022-11-28T23:17:56.078Z,2.35
2022-11-28T23:20:22.738Z,2.57
2022-11-28T23:22:49.482Z,2.44
2022-11-28T23:25:16.156Z,2.37
2022-11-28T23:27:42.818Z,2.48
2022-11-28T23:30:09.721Z,2.49
2022-11-28T23:32:36.377Z,2.65
2022-11-28T23:35:03.028Z,2.35
2022-11-28T23:37:29.668Z,2.30
2022-11-28T23:39:56.323Z,2.09
2022-11-28T23:42:22.982Z,1.76
2022-11-28T23:44:49.596Z,1.62
2022-11-28T23:47:16.249Z,1.33
2022-11-28T23:49:42.907Z,1.20
2022-11-28T23:52:09.516Z,1.23
2022-11-28T23:54:36.165Z,1.38
2022-11-28T23:57:02.806Z,1.43
2022-11-28T23:59:29.451Z,1.48
